Exeter, ME (04435)

1:40 AM EDT on September 01, 2016 (GMT -0400)
Stonyvale Farms | | Change Station

Elev 269 ft 44.95 °N, 69.12 °W | Updated 10 minutes ago

Partly Cloudy
Partly Cloudy
65.6 °F
Feels Like 65.6 °F
N
2.0
Wind Variable Wind from WNW
Gusts 2.0 mph

Today
High -- | Low -- °F
--% Chance of Precip.
Yesterday
High -- | Low -- °F
Precip. -- in
Pressure 29.79 in
Visibility 10.0 miles
Clouds Few 7500 ft
Dew Point 64 °F
Humidity 94%
Rainfall 0.01 in
Snow Depth Not available.
5:59 AM 7:12 PM
Waning Crescent, 0% visible
METAR KBGR 010453Z 00000KT 10SM FEW075 19/17 A2980 RMK AO2 SLP087 OCNL LTGICCG DSNT NE CB DSNT NE T01890172 402500150
Pressure 29.79 in
Visibility 10.0 miles
Clouds Few 7500 ft
Dew Point 64 °F
Humidity 94%
Rainfall 0.01 in
Snow Depth Not available.
5:59 AM 7:12 PM
Waning Crescent, 0% visible
METAR KBGR 010453Z 00000KT 10SM FEW075 19/17 A2980 RMK AO2 SLP087 OCNL LTGICCG DSNT NE CB DSNT NE T01890172 402500150

10-Day Weather Forecast

Almanac

Astronomy

Sep. 01, 2016 Rise Set
Actual Time
Civil Twilight
Nautical Twilight
Astronomical Twilight
Moon
Length of Visible Light
Length of Day
Tomorrow will be .
, % of the Moon is Illuminated

Today's Extremes

State Highs State Lows

Community

WunderPhotos

Upload Photos

1,936,313 photos uploaded!

WunderBlog® & News

Nearby

Air Quality

  Air Quality AQ Index Pollutant
Not available.

Snow Depth

Station Depth Elevation

Earthquake Activity

City Distance Mag. Time & Date
Minimum magnitude displayed is 2.5.

Coastal Water Temperatures

Place Temperature

Stations

Nearby Weather Stations

Station Location Temp. Windchill Dew Point Humidity Wind Precip. Elev Updated Type
                   

Watches & Warnings

There are currently no watches in effect.